sensor_id;sensor_type;location;lat;lon;timestamp;temperature;humidity
33761;DHT22;20084;47.912;19.044;2024-02-16T00:00:07;8.40;99.90
33761;DHT22;20084;47.912;19.044;2024-02-16T00:02:33;8.40;99.90
33761;DHT22;20084;47.912;19.044;2024-02-16T00:04:58;8.40;99.90
33761;DHT22;20084;47.912;19.044;2024-02-16T00:07:24;8.30;99.90
33761;DHT22;20084;47.912;19.044;2024-02-16T00:09:50;8.30;99.90
33761;DHT22;20084;47.912;19.044;2024-02-16T00:12:16;8.30;99.90
33761;DHT22;20084;47.912;19.044;2024-02-16T00:14:42;8.30;99.90
33761;DHT22;20084;47.912;19.044;2024-02-16T00:17:08;8.20;99.90
33761;DHT22;20084;47.912;19.044;2024-02-16T00:19:35;8.10;99.90
33761;DHT22;20084;47.912;19.044;2024-02-16T00:22:01;8.00;99.90
33761;DHT22;20084;47.912;19.044;2024-02-16T00:24:27;8.00;99.90
33761;DHT22;20084;47.912;19.044;2024-02-16T00:26:52;7.90;99.90
33761;DHT22;20084;47.912;19.044;2024-02-16T00:29:18;7.90;99.90
33761;DHT22;20084;47.912;19.044;2024-02-16T00:31:44;8.00;99.90
33761;DHT22;20084;47.912;19.044;2024-02-16T00:34:10;8.00;99.90
33761;DHT22;20084;47.912;19.044;2024-02-16T00:36:36;7.90;99.90
33761;DHT22;20084;47.912;19.044;2024-02-16T00:39:02;7.90;99.90
33761;DHT22;20084;47.912;19.044;2024-02-16T00:41:29;7.90;99.90
33761;DHT22;20084;47.912;19.044;2024-02-16T00:43:55;7.90;99.90
33761;DHT22;20084;47.912;19.044;2024-02-16T00:46:22;7.90;99.90
33761;DHT22;20084;47.912;19.044;2024-02-16T00:48:52;7.90;99.90
33761;DHT22;20084;47.912;19.044;2024-02-16T00:51:19;7.90;99.90
33761;DHT22;20084;47.912;19.044;2024-02-16T00:53:46;7.80;99.90
33761;DHT22;20084;47.912;19.044;2024-02-16T00:56:12;7.70;99.90
33761;DHT22;20084;47.912;19.044;2024-02-16T00:58:40;7.70;99.90
33761;DHT22;20084;47.912;19.044;2024-02-16T01:01:08;7.70;99.90
33761;DHT22;20084;47.912;19.044;2024-02-16T01:03:36;7.60;99.90
33761;DHT22;20084;47.912;19.044;2024-02-16T01:06:03;7.40;99.90
33761;DHT22;20084;47.912;19.044;2024-02-16T01:08:29;7.20;99.90
33761;DHT22;20084;47.912;19.044;2024-02-16T01:10:55;7.10;99.90
33761;DHT22;20084;47.912;19.044;2024-02-16T01:13:21;7.00;99.90
33761;DHT22;20084;47.912;19.044;2024-02-16T01:15:47;7.10;99.90
33761;DHT22;20084;47.912;19.044;2024-02-16T01:18:12;7.10;99.90
33761;DHT22;20084;47.912;19.044;2024-02-16T01:20:38;7.10;99.90
33761;DHT22;20084;47.912;19.044;2024-02-16T01:23:04;7.10;99.90
33761;DHT22;20084;47.912;19.044;2024-02-16T01:25:31;7.00;99.90
33761;DHT22;20084;47.912;19.044;2024-02-16T01:27:57;7.10;99.90
33761;DHT22;20084;47.912;19.044;2024-02-16T01:30:23;7.10;99.90
33761;DHT22;20084;47.912;19.044;2024-02-16T01:32:48;7.00;99.90
33761;DHT22;20084;47.912;19.044;2024-02-16T01:35:14;7.00;99.90
33761;DHT22;20084;47.912;19.044;2024-02-16T01:37:40;6.90;99.90
33761;DHT22;20084;47.912;19.044;2024-02-16T01:40:08;6.70;99.90
33761;DHT22;20084;47.912;19.044;2024-02-16T01:42:41;6.60;99.90
33761;DHT22;20084;47.912;19.044;2024-02-16T01:45:08;6.50;99.90
33761;DHT22;20084;47.912;19.044;2024-02-16T01:47:42;6.40;99.90
33761;DHT22;20084;47.912;19.044;2024-02-16T01:50:09;6.50;99.90
33761;DHT22;20084;47.912;19.044;2024-02-16T01:52:35;6.50;99.90
33761;DHT22;20084;47.912;19.044;2024-02-16T01:55:04;6.50;99.90
33761;DHT22;20084;47.912;19.044;2024-02-16T01:57:31;6.60;99.90
33761;DHT22;20084;47.912;19.044;2024-02-16T01:59:57;6.50;99.90
33761;DHT22;20084;47.912;19.044;2024-02-16T02:02:23;6.60;99.90
33761;DHT22;20084;47.912;19.044;2024-02-16T02:04:48;6.60;99.90
33761;DHT22;20084;47.912;19.044;2024-02-16T02:07:15;6.60;99.90
33761;DHT22;20084;47.912;19.044;2024-02-16T02:09:41;6.50;99.90
33761;DHT22;20084;47.912;19.044;2024-02-16T02:12:09;6.30;99.90
33761;DHT22;20084;47.912;19.044;2024-02-16T02:14:35;6.30;99.90
33761;DHT22;20084;47.912;19.044;2024-02-16T02:17:02;6.20;99.90
33761;DHT22;20084;47.912;19.044;2024-02-16T02:19:27;6.20;99.90
33761;DHT22;20084;47.912;19.044;2024-02-16T02:21:54;6.10;99.90
33761;DHT22;20084;47.912;19.044;2024-02-16T02:24:19;6.10;99.90
33761;DHT22;20084;47.912;19.044;2024-02-16T02:26:46;6.00;99.90
33761;DHT22;20084;47.912;19.044;2024-02-16T02:29:11;6.00;99.90
33761;DHT22;20084;47.912;19.044;2024-02-16T02:31:37;6.00;99.90
33761;DHT22;20084;47.912;19.044;2024-02-16T02:34:02;6.00;99.90
33761;DHT22;20084;47.912;19.044;2024-02-16T02:36:31;6.00;99.90
33761;DHT22;20084;47.912;19.044;2024-02-16T02:38:56;5.90;99.90
33761;DHT22;20084;47.912;19.044;2024-02-16T02:41:23;5.80;99.90
33761;DHT22;20084;47.912;19.044;2024-02-16T02:43:48;5.80;99.90
33761;DHT22;20084;47.912;19.044;2024-02-16T02:46:17;5.70;99.90
33761;DHT22;20084;47.912;19.044;2024-02-16T02:48:44;5.70;99.90
33761;DHT22;20084;47.912;19.044;2024-02-16T02:51:10;5.60;99.90
33761;DHT22;20084;47.912;19.044;2024-02-16T02:53:35;5.70;99.90
33761;DHT22;20084;47.912;19.044;2024-02-16T02:56:01;5.80;99.90
33761;DHT22;20084;47.912;19.044;2024-02-16T02:58:28;5.70;99.90
33761;DHT22;20084;47.912;19.044;2024-02-16T03:00:53;5.70;99.90
33761;DHT22;20084;47.912;19.044;2024-02-16T03:03:20;5.70;99.90
33761;DHT22;20084;47.912;19.044;2024-02-16T03:05:45;5.60;99.90
33761;DHT22;20084;47.912;19.044;2024-02-16T03:08:11;5.50;99.90
33761;DHT22;20084;47.912;19.044;2024-02-16T03:10:37;5.50;99.90
33761;DHT22;20084;47.912;19.044;2024-02-16T03:13:03;5.40;99.90
33761;DHT22;20084;47.912;19.044;2024-02-16T03:15:29;5.50;99.90
33761;DHT22;20084;47.912;19.044;2024-02-16T03:17:55;5.50;99.90
33761;DHT22;20084;47.912;19.044;2024-02-16T03:20:21;5.50;99.90
33761;DHT22;20084;47.912;19.044;2024-02-16T03:22:48;5.40;99.90
33761;DHT22;20084;47.912;19.044;2024-02-16T03:25:14;5.40;99.90
33761;DHT22;20084;47.912;19.044;2024-02-16T03:27:42;5.40;99.90
33761;DHT22;20084;47.912;19.044;2024-02-16T03:30:08;5.40;99.90
33761;DHT22;20084;47.912;19.044;2024-02-16T03:32:34;5.30;99.90
33761;DHT22;20084;47.912;19.044;2024-02-16T03:35:00;5.30;99.90
33761;DHT22;20084;47.912;19.044;2024-02-16T03:37:26;5.40;99.90
33761;DHT22;20084;47.912;19.044;2024-02-16T03:39:51;5.30;99.90
33761;DHT22;20084;47.912;19.044;2024-02-16T03:42:19;5.30;99.90
33761;DHT22;20084;47.912;19.044;2024-02-16T03:44:45;5.30;99.90
33761;DHT22;20084;47.912;19.044;2024-02-16T03:47:11;5.30;99.90
33761;DHT22;20084;47.912;19.044;2024-02-16T03:49:37;5.30;99.90
33761;DHT22;20084;47.912;19.044;2024-02-16T03:52:03;5.30;99.90
33761;DHT22;20084;47.912;19.044;2024-02-16T03:54:29;5.20;99.90
33761;DHT22;20084;47.912;19.044;2024-02-16T03:56:55;5.20;99.90
33761;DHT22;20084;47.912;19.044;2024-02-16T03:59:21;5.10;99.90
33761;DHT22;20084;47.912;19.044;2024-02-16T04:01:46;5.10;99.90
33761;DHT22;20084;47.912;19.044;2024-02-16T04:04:12;5.00;99.90
33761;DHT22;20084;47.912;19.044;2024-02-16T04:06:39;5.00;99.90
33761;DHT22;20084;47.912;19.044;2024-02-16T04:09:05;4.90;99.90
33761;DHT22;20084;47.912;19.044;2024-02-16T04:11:34;4.90;99.90
33761;DHT22;20084;47.912;19.044;2024-02-16T04:14:01;5.00;99.90
33761;DHT22;20084;47.912;19.044;2024-02-16T04:16:27;5.00;99.90
33761;DHT22;20084;47.912;19.044;2024-02-16T04:18:52;5.00;99.90
33761;DHT22;20084;47.912;19.044;2024-02-16T04:21:18;5.00;99.90
33761;DHT22;20084;47.912;19.044;2024-02-16T04:23:44;5.00;99.90
33761;DHT22;20084;47.912;19.044;2024-02-16T04:26:10;5.10;99.90
33761;DHT22;20084;47.912;19.044;2024-02-16T04:28:36;5.00;99.90
33761;DHT22;20084;47.912;19.044;2024-02-16T04:31:01;4.90;99.90
33761;DHT22;20084;47.912;19.044;2024-02-16T04:33:27;4.80;99.90
33761;DHT22;20084;47.912;19.044;2024-02-16T04:35:53;4.70;99.90
33761;DHT22;20084;47.912;19.044;2024-02-16T04:38:18;4.70;99.90
33761;DHT22;20084;47.912;19.044;2024-02-16T04:40:45;4.70;99.90
33761;DHT22;20084;47.912;19.044;2024-02-16T04:43:11;4.70;99.90
33761;DHT22;20084;47.912;19.044;2024-02-16T04:45:36;4.70;99.90
33761;DHT22;20084;47.912;19.044;2024-02-16T04:48:06;4.70;99.90
33761;DHT22;20084;47.912;19.044;2024-02-16T04:50:35;4.70;99.90
33761;DHT22;20084;47.912;19.044;2024-02-16T04:53:01;4.70;99.90
33761;DHT22;20084;47.912;19.044;2024-02-16T04:55:28;4.70;99.90
33761;DHT22;20084;47.912;19.044;2024-02-16T04:57:54;4.70;99.90
33761;DHT22;20084;47.912;19.044;2024-02-16T05:00:20;4.70;99.90
33761;DHT22;20084;47.912;19.044;2024-02-16T05:02:46;4.60;99.90
33761;DHT22;20084;47.912;19.044;2024-02-16T05:05:11;4.60;99.90
33761;DHT22;20084;47.912;19.044;2024-02-16T05:07:37;4.60;99.90
33761;DHT22;20084;47.912;19.044;2024-02-16T05:10:03;4.60;99.90
33761;DHT22;20084;47.912;19.044;2024-02-16T05:12:29;4.50;99.90
33761;DHT22;20084;47.912;19.044;2024-02-16T05:14:55;4.50;99.90
33761;DHT22;20084;47.912;19.044;2024-02-16T05:17:20;4.60;99.90
33761;DHT22;20084;47.912;19.044;2024-02-16T05:19:48;4.60;99.90
33761;DHT22;20084;47.912;19.044;2024-02-16T05:22:13;4.70;99.90
33761;DHT22;20084;47.912;19.044;2024-02-16T05:24:39;4.70;99.90
33761;DHT22;20084;47.912;19.044;2024-02-16T05:27:05;4.70;99.90
33761;DHT22;20084;47.912;19.044;2024-02-16T05:29:31;4.70;99.90
33761;DHT22;20084;47.912;19.044;2024-02-16T05:31:57;4.70;99.90
33761;DHT22;20084;47.912;19.044;2024-02-16T05:34:22;4.70;99.90
33761;DHT22;20084;47.912;19.044;2024-02-16T05:36:49;4.60;99.90
33761;DHT22;20084;47.912;19.044;2024-02-16T05:39:15;4.40;99.90
33761;DHT22;20084;47.912;19.044;2024-02-16T05:41:54;4.30;99.90
33761;DHT22;20084;47.912;19.044;2024-02-16T05:44:21;4.30;99.90
33761;DHT22;20084;47.912;19.044;2024-02-16T05:46:46;4.30;99.90
33761;DHT22;20084;47.912;19.044;2024-02-16T05:49:13;4.30;99.90
33761;DHT22;20084;47.912;19.044;2024-02-16T05:51:38;4.20;99.90
33761;DHT22;20084;47.912;19.044;2024-02-16T05:54:07;4.20;99.90
33761;DHT22;20084;47.912;19.044;2024-02-16T05:56:36;4.20;99.90
33761;DHT22;20084;47.912;19.044;2024-02-16T05:59:04;4.20;99.90
33761;DHT22;20084;47.912;19.044;2024-02-16T06:01:31;4.20;99.90
33761;DHT22;20084;47.912;19.044;2024-02-16T06:03:56;4.20;99.90
33761;DHT22;20084;47.912;19.044;2024-02-16T06:06:22;4.20;99.90
33761;DHT22;20084;47.912;19.044;2024-02-16T06:08:47;4.20;99.90
33761;DHT22;20084;47.912;19.044;2024-02-16T06:11:13;4.20;99.90
33761;DHT22;20084;47.912;19.044;2024-02-16T06:13:40;4.20;99.90
33761;DHT22;20084;47.912;19.044;2024-02-16T06:16:06;4.20;99.90
33761;DHT22;20084;47.912;19.044;2024-02-16T06:18:35;4.20;99.90
33761;DHT22;20084;47.912;19.044;2024-02-16T06:21:01;4.20;99.90
33761;DHT22;20084;47.912;19.044;2024-02-16T06:23:27;4.20;99.90
33761;DHT22;20084;47.912;19.044;2024-02-16T06:25:53;4.30;99.90
33761;DHT22;20084;47.912;19.044;2024-02-16T06:28:18;4.30;99.90
33761;DHT22;20084;47.912;19.044;2024-02-16T06:30:44;4.30;99.90
33761;DHT22;20084;47.912;19.044;2024-02-16T06:33:09;4.30;99.90
33761;DHT22;20084;47.912;19.044;2024-02-16T06:35:35;4.20;99.90
33761;DHT22;20084;47.912;19.044;2024-02-16T06:38:01;4.20;99.90
33761;DHT22;20084;47.912;19.044;2024-02-16T06:40:26;4.20;99.90
33761;DHT22;20084;47.912;19.044;2024-02-16T06:42:53;4.20;99.90
33761;DHT22;20084;47.912;19.044;2024-02-16T06:45:18;4.30;99.90
33761;DHT22;20084;47.912;19.044;2024-02-16T06:47:44;4.40;99.90
33761;DHT22;20084;47.912;19.044;2024-02-16T06:50:10;4.40;99.90
33761;DHT22;20084;47.912;19.044;2024-02-16T06:52:36;4.40;99.90
33761;DHT22;20084;47.912;19.044;2024-02-16T06:55:01;4.30;99.90
33761;DHT22;20084;47.912;19.044;2024-02-16T06:57:27;4.30;99.90
33761;DHT22;20084;47.912;19.044;2024-02-16T06:59:52;4.40;99.90
33761;DHT22;20084;47.912;19.044;2024-02-16T07:02:18;4.50;99.90
33761;DHT22;20084;47.912;19.044;2024-02-16T07:04:44;4.60;99.90
33761;DHT22;20084;47.912;19.044;2024-02-16T07:07:11;4.80;99.90
33761;DHT22;20084;47.912;19.044;2024-02-16T07:09:37;4.90;99.90
33761;DHT22;20084;47.912;19.044;2024-02-16T07:12:06;4.90;99.90
33761;DHT22;20084;47.912;19.044;2024-02-16T07:14:32;5.00;99.90
33761;DHT22;20084;47.912;19.044;2024-02-16T07:16:57;5.10;99.90
33761;DHT22;20084;47.912;19.044;2024-02-16T07:19:23;5.10;99.90
33761;DHT22;20084;47.912;19.044;2024-02-16T07:21:50;5.10;99.90
33761;DHT22;20084;47.912;19.044;2024-02-16T07:24:16;5.20;99.90
33761;DHT22;20084;47.912;19.044;2024-02-16T07:26:42;5.30;99.90
33761;DHT22;20084;47.912;19.044;2024-02-16T07:29:07;5.50;99.90
33761;DHT22;20084;47.912;19.044;2024-02-16T07:31:34;5.70;99.90
33761;DHT22;20084;47.912;19.044;2024-02-16T07:34:02;5.80;99.90
33761;DHT22;20084;47.912;19.044;2024-02-16T07:36:29;5.80;99.90
33761;DHT22;20084;47.912;19.044;2024-02-16T07:38:54;5.90;99.90
33761;DHT22;20084;47.912;19.044;2024-02-16T07:41:20;6.00;99.90
33761;DHT22;20084;47.912;19.044;2024-02-16T07:43:46;6.10;99.90
33761;DHT22;20084;47.912;19.044;2024-02-16T07:46:11;6.20;99.90
33761;DHT22;20084;47.912;19.044;2024-02-16T07:48:38;6.30;99.90
33761;DHT22;20084;47.912;19.044;2024-02-16T07:51:03;6.40;99.90
33761;DHT22;20084;47.912;19.044;2024-02-16T07:53:30;6.50;99.90
33761;DHT22;20084;47.912;19.044;2024-02-16T07:55:56;6.50;99.90
33761;DHT22;20084;47.912;19.044;2024-02-16T07:58:22;6.60;99.90
33761;DHT22;20084;47.912;19.044;2024-02-16T08:00:48;6.70;99.90
33761;DHT22;20084;47.912;19.044;2024-02-16T08:03:13;6.80;99.90
33761;DHT22;20084;47.912;19.044;2024-02-16T08:05:39;6.90;99.90
33761;DHT22;20084;47.912;19.044;2024-02-16T08:08:04;7.10;99.90
33761;DHT22;20084;47.912;19.044;2024-02-16T08:10:30;7.20;99.90
33761;DHT22;20084;47.912;19.044;2024-02-16T08:12:56;7.30;99.90
33761;DHT22;20084;47.912;19.044;2024-02-16T08:15:21;7.40;99.90
33761;DHT22;20084;47.912;19.044;2024-02-16T08:17:51;7.50;99.90
33761;DHT22;20084;47.912;19.044;2024-02-16T08:20:17;7.60;99.90
33761;DHT22;20084;47.912;19.044;2024-02-16T08:22:43;7.60;99.90
33761;DHT22;20084;47.912;19.044;2024-02-16T08:25:09;7.70;99.90
33761;DHT22;20084;47.912;19.044;2024-02-16T08:27:34;7.80;99.90
33761;DHT22;20084;47.912;19.044;2024-02-16T08:30:00;8.00;99.90
33761;DHT22;20084;47.912;19.044;2024-02-16T08:32:27;8.10;99.90
33761;DHT22;20084;47.912;19.044;2024-02-16T08:34:53;8.20;99.90
33761;DHT22;20084;47.912;19.044;2024-02-16T08:37:21;8.30;99.90
33761;DHT22;20084;47.912;19.044;2024-02-16T08:39:47;8.30;99.90
33761;DHT22;20084;47.912;19.044;2024-02-16T08:42:13;8.50;99.90
33761;DHT22;20084;47.912;19.044;2024-02-16T08:44:39;8.50;99.90
33761;DHT22;20084;47.912;19.044;2024-02-16T08:47:06;8.50;99.90
33761;DHT22;20084;47.912;19.044;2024-02-16T08:49:33;8.60;99.90
33761;DHT22;20084;47.912;19.044;2024-02-16T08:51:59;8.60;99.90
33761;DHT22;20084;47.912;19.044;2024-02-16T08:54:24;8.70;99.90
33761;DHT22;20084;47.912;19.044;2024-02-16T08:56:51;8.70;99.90
33761;DHT22;20084;47.912;19.044;2024-02-16T08:59:17;8.80;99.90
33761;DHT22;20084;47.912;19.044;2024-02-16T09:01:43;8.80;99.90
33761;DHT22;20084;47.912;19.044;2024-02-16T09:04:09;9.00;99.90
33761;DHT22;20084;47.912;19.044;2024-02-16T09:06:34;9.20;99.90
33761;DHT22;20084;47.912;19.044;2024-02-16T09:09:00;9.40;99.90
33761;DHT22;20084;47.912;19.044;2024-02-16T09:11:26;9.50;99.90
33761;DHT22;20084;47.912;19.044;2024-02-16T09:13:53;9.30;99.90
33761;DHT22;20084;47.912;19.044;2024-02-16T09:16:19;9.40;99.90
33761;DHT22;20084;47.912;19.044;2024-02-16T09:18:45;9.60;99.90
33761;DHT22;20084;47.912;19.044;2024-02-16T09:21:11;9.80;99.90
33761;DHT22;20084;47.912;19.044;2024-02-16T09:23:37;10.00;99.90
33761;DHT22;20084;47.912;19.044;2024-02-16T09:26:03;10.10;99.90
33761;DHT22;20084;47.912;19.044;2024-02-16T09:28:29;10.10;99.90
33761;DHT22;20084;47.912;19.044;2024-02-16T09:30:55;10.10;99.90
33761;DHT22;20084;47.912;19.044;2024-02-16T09:33:22;10.10;99.90
33761;DHT22;20084;47.912;19.044;2024-02-16T09:35:48;10.10;99.90
33761;DHT22;20084;47.912;19.044;2024-02-16T09:38:14;10.20;99.90
33761;DHT22;20084;47.912;19.044;2024-02-16T09:40:39;10.30;99.90
33761;DHT22;20084;47.912;19.044;2024-02-16T09:43:05;10.20;99.90
33761;DHT22;20084;47.912;19.044;2024-02-16T09:45:32;10.30;99.90
33761;DHT22;20084;47.912;19.044;2024-02-16T09:47:59;10.50;99.90
33761;DHT22;20084;47.912;19.044;2024-02-16T09:50:25;10.60;99.90
33761;DHT22;20084;47.912;19.044;2024-02-16T09:52:52;10.70;99.90
33761;DHT22;20084;47.912;19.044;2024-02-16T09:55:19;10.80;99.90
33761;DHT22;20084;47.912;19.044;2024-02-16T09:57:45;10.90;99.90
33761;DHT22;20084;47.912;19.044;2024-02-16T10:00:11;10.90;99.90
33761;DHT22;20084;47.912;19.044;2024-02-16T10:02:44;11.00;99.90
33761;DHT22;20084;47.912;19.044;2024-02-16T10:05:28;11.00;99.90
33761;DHT22;20084;47.912;19.044;2024-02-16T10:07:56;11.10;99.90
33761;DHT22;20084;47.912;19.044;2024-02-16T10:10:28;11.10;99.90
33761;DHT22;20084;47.912;19.044;2024-02-16T10:13:02;11.00;99.90
33761;DHT22;20084;47.912;19.044;2024-02-16T10:15:29;10.80;99.90
33761;DHT22;20084;47.912;19.044;2024-02-16T10:18:02;10.80;99.90
33761;DHT22;20084;47.912;19.044;2024-02-16T10:20:28;10.80;99.90
33761;DHT22;20084;47.912;19.044;2024-02-16T10:23:11;10.90;99.90
33761;DHT22;20084;47.912;19.044;2024-02-16T10:25:38;11.00;99.90
33761;DHT22;20084;47.912;19.044;2024-02-16T10:28:06;11.10;99.90
33761;DHT22;20084;47.912;19.044;2024-02-16T10:30:35;11.00;99.90
33761;DHT22;20084;47.912;19.044;2024-02-16T10:33:03;11.10;99.90
33761;DHT22;20084;47.912;19.044;2024-02-16T10:35:30;11.20;99.90
33761;DHT22;20084;47.912;19.044;2024-02-16T10:37:56;11.10;99.90
33761;DHT22;20084;47.912;19.044;2024-02-16T10:40:23;11.20;99.90
33761;DHT22;20084;47.912;19.044;2024-02-16T10:42:50;11.30;99.90
33761;DHT22;20084;47.912;19.044;2024-02-16T10:45:17;11.40;99.90
33761;DHT22;20084;47.912;19.044;2024-02-16T10:47:44;11.60;99.90
33761;DHT22;20084;47.912;19.044;2024-02-16T10:50:09;11.60;99.90
33761;DHT22;20084;47.912;19.044;2024-02-16T10:52:37;11.70;99.90
33761;DHT22;20084;47.912;19.044;2024-02-16T10:55:05;11.70;99.90
33761;DHT22;20084;47.912;19.044;2024-02-16T10:57:31;11.60;99.90
33761;DHT22;20084;47.912;19.044;2024-02-16T10:59:58;11.60;99.90
33761;DHT22;20084;47.912;19.044;2024-02-16T11:02:24;11.70;99.90
33761;DHT22;20084;47.912;19.044;2024-02-16T11:04:52;11.80;99.90
33761;DHT22;20084;47.912;19.044;2024-02-16T11:07:19;11.80;99.90
33761;DHT22;20084;47.912;19.044;2024-02-16T11:09:46;11.60;99.90
33761;DHT22;20084;47.912;19.044;2024-02-16T11:12:13;11.60;99.90
33761;DHT22;20084;47.912;19.044;2024-02-16T11:14:43;11.60;99.90
33761;DHT22;20084;47.912;19.044;2024-02-16T11:17:12;11.60;99.90
33761;DHT22;20084;47.912;19.044;2024-02-16T11:19:43;11.60;99.90
33761;DHT22;20084;47.912;19.044;2024-02-16T11:22:09;11.60;99.90
33761;DHT22;20084;47.912;19.044;2024-02-16T11:24:37;11.70;99.90
33761;DHT22;20084;47.912;19.044;2024-02-16T11:27:07;11.80;99.90
33761;DHT22;20084;47.912;19.044;2024-02-16T11:29:35;12.00;99.90
33761;DHT22;20084;47.912;19.044;2024-02-16T11:32:02;12.10;99.90
33761;DHT22;20084;47.912;19.044;2024-02-16T11:34:28;12.20;99.90
33761;DHT22;20084;47.912;19.044;2024-02-16T11:36:58;12.20;99.90
33761;DHT22;20084;47.912;19.044;2024-02-16T11:39:25;12.20;99.90
33761;DHT22;20084;47.912;19.044;2024-02-16T11:42:12;12.30;99.90
33761;DHT22;20084;47.912;19.044;2024-02-16T11:44:39;12.40;99.90
33761;DHT22;20084;47.912;19.044;2024-02-16T11:47:06;12.40;99.90
33761;DHT22;20084;47.912;19.044;2024-02-16T11:49:34;12.40;99.90
33761;DHT22;20084;47.912;19.044;2024-02-16T11:52:00;12.40;99.90
33761;DHT22;20084;47.912;19.044;2024-02-16T11:54:26;12.40;99.90
33761;DHT22;20084;47.912;19.044;2024-02-16T11:56:52;12.50;99.90
33761;DHT22;20084;47.912;19.044;2024-02-16T11:59:19;12.50;99.90
33761;DHT22;20084;47.912;19.044;2024-02-16T12:01:51;12.60;99.90
33761;DHT22;20084;47.912;19.044;2024-02-16T12:04:25;12.60;99.90
33761;DHT22;20084;47.912;19.044;2024-02-16T12:06:55;12.70;99.90
33761;DHT22;20084;47.912;19.044;2024-02-16T12:09:21;12.70;99.90
33761;DHT22;20084;47.912;19.044;2024-02-16T12:11:52;12.70;99.90
33761;DHT22;20084;47.912;19.044;2024-02-16T12:14:18;12.80;99.90
33761;DHT22;20084;47.912;19.044;2024-02-16T12:16:48;12.90;99.90
33761;DHT22;20084;47.912;19.044;2024-02-16T12:19:14;12.90;99.90
33761;DHT22;20084;47.912;19.044;2024-02-16T12:21:39;12.90;99.90
33761;DHT22;20084;47.912;19.044;2024-02-16T12:24:06;12.90;99.90
33761;DHT22;20084;47.912;19.044;2024-02-16T12:26:31;12.90;99.90
33761;DHT22;20084;47.912;19.044;2024-02-16T12:28:57;12.90;99.90
33761;DHT22;20084;47.912;19.044;2024-02-16T12:31:23;12.90;99.90
33761;DHT22;20084;47.912;19.044;2024-02-16T12:33:49;13.00;99.90
33761;DHT22;20084;47.912;19.044;2024-02-16T12:36:15;13.00;99.90
33761;DHT22;20084;47.912;19.044;2024-02-16T12:38:41;13.10;99.90
33761;DHT22;20084;47.912;19.044;2024-02-16T12:41:07;13.10;99.90
33761;DHT22;20084;47.912;19.044;2024-02-16T12:43:34;13.20;99.90
33761;DHT22;20084;47.912;19.044;2024-02-16T12:45:59;13.20;99.90
33761;DHT22;20084;47.912;19.044;2024-02-16T12:48:27;13.20;99.90
33761;DHT22;20084;47.912;19.044;2024-02-16T12:50:54;13.30;99.90
33761;DHT22;20084;47.912;19.044;2024-02-16T12:53:19;13.30;99.90
33761;DHT22;20084;47.912;19.044;2024-02-16T12:55:46;13.40;99.90
33761;DHT22;20084;47.912;19.044;2024-02-16T12:58:13;13.50;99.90
33761;DHT22;20084;47.912;19.044;2024-02-16T13:00:38;13.60;99.90
33761;DHT22;20084;47.912;19.044;2024-02-16T13:03:04;13.60;99.90
33761;DHT22;20084;47.912;19.044;2024-02-16T13:05:30;13.60;99.90
33761;DHT22;20084;47.912;19.044;2024-02-16T13:07:58;13.60;99.90
33761;DHT22;20084;47.912;19.044;2024-02-16T13:10:24;13.70;99.90
33761;DHT22;20084;47.912;19.044;2024-02-16T13:12:49;13.70;99.90
33761;DHT22;20084;47.912;19.044;2024-02-16T13:15:15;13.80;99.90
33761;DHT22;20084;47.912;19.044;2024-02-16T13:17:40;13.90;99.90
33761;DHT22;20084;47.912;19.044;2024-02-16T13:20:07;14.00;99.90
33761;DHT22;20084;47.912;19.044;2024-02-16T13:22:37;14.00;99.90
33761;DHT22;20084;47.912;19.044;2024-02-16T13:25:07;14.10;99.90
33761;DHT22;20084;47.912;19.044;2024-02-16T13:27:33;14.10;99.90
33761;DHT22;20084;47.912;19.044;2024-02-16T13:30:00;14.10;99.90
33761;DHT22;20084;47.912;19.044;2024-02-16T13:32:26;14.10;99.90
33761;DHT22;20084;47.912;19.044;2024-02-16T13:34:52;14.20;99.90
33761;DHT22;20084;47.912;19.044;2024-02-16T13:37:18;14.30;99.90
33761;DHT22;20084;47.912;19.044;2024-02-16T13:39:43;14.40;99.90
33761;DHT22;20084;47.912;19.044;2024-02-16T13:42:09;14.50;99.90
33761;DHT22;20084;47.912;19.044;2024-02-16T13:44:36;14.60;99.90
33761;DHT22;20084;47.912;19.044;2024-02-16T13:47:02;14.70;99.90
33761;DHT22;20084;47.912;19.044;2024-02-16T13:49:28;14.80;99.90
33761;DHT22;20084;47.912;19.044;2024-02-16T13:51:53;14.90;99.90
33761;DHT22;20084;47.912;19.044;2024-02-16T13:54:19;15.30;99.90
33761;DHT22;20084;47.912;19.044;2024-02-16T13:56:46;15.70;99.90
33761;DHT22;20084;47.912;19.044;2024-02-16T13:59:12;15.90;99.90
33761;DHT22;20084;47.912;19.044;2024-02-16T14:01:37;17.40;98.00
33761;DHT22;20084;47.912;19.044;2024-02-16T14:04:03;19.40;96.50
33761;DHT22;20084;47.912;19.044;2024-02-16T14:06:29;21.10;93.30
33761;DHT22;20084;47.912;19.044;2024-02-16T14:08:56;19.80;89.60
33761;DHT22;20084;47.912;19.044;2024-02-16T14:11:23;18.60;90.80
33761;DHT22;20084;47.912;19.044;2024-02-16T14:13:48;17.90;92.20
33761;DHT22;20084;47.912;19.044;2024-02-16T14:16:15;19.20;93.40
33761;DHT22;20084;47.912;19.044;2024-02-16T14:18:41;21.20;90.00
33761;DHT22;20084;47.912;19.044;2024-02-16T14:21:07;22.70;86.20
33761;DHT22;20084;47.912;19.044;2024-02-16T14:23:32;23.90;82.20
33761;DHT22;20084;47.912;19.044;2024-02-16T14:25:58;24.80;72.30
33761;DHT22;20084;47.912;19.044;2024-02-16T14:28:24;25.10;68.10
33761;DHT22;20084;47.912;19.044;2024-02-16T14:30:50;25.40;65.90
33761;DHT22;20084;47.912;19.044;2024-02-16T14:33:18;25.80;64.00
33761;DHT22;20084;47.912;19.044;2024-02-16T14:35:44;25.90;60.10
33761;DHT22;20084;47.912;19.044;2024-02-16T14:38:11;25.50;59.80
33761;DHT22;20084;47.912;19.044;2024-02-16T14:40:38;25.00;58.80
33761;DHT22;20084;47.912;19.044;2024-02-16T14:43:04;24.80;60.00
33761;DHT22;20084;47.912;19.044;2024-02-16T14:45:30;24.50;60.10
33761;DHT22;20084;47.912;19.044;2024-02-16T14:47:56;24.20;60.30
33761;DHT22;20084;47.912;19.044;2024-02-16T14:50:23;24.00;58.90
33761;DHT22;20084;47.912;19.044;2024-02-16T14:52:49;23.60;58.50
33761;DHT22;20084;47.912;19.044;2024-02-16T14:55:15;23.20;59.60
33761;DHT22;20084;47.912;19.044;2024-02-16T14:57:41;23.00;59.90
33761;DHT22;20084;47.912;19.044;2024-02-16T15:00:08;23.00;60.00
33761;DHT22;20084;47.912;19.044;2024-02-16T15:02:34;23.00;61.50
33761;DHT22;20084;47.912;19.044;2024-02-16T15:05:01;23.00;61.70
33761;DHT22;20084;47.912;19.044;2024-02-16T15:07:27;23.00;60.90
33761;DHT22;20084;47.912;19.044;2024-02-16T15:09:53;22.90;60.10
33761;DHT22;20084;47.912;19.044;2024-02-16T15:12:18;22.60;59.90
33761;DHT22;20084;47.912;19.044;2024-02-16T15:14:49;22.20;61.50
33761;DHT22;20084;47.912;19.044;2024-02-16T15:17:15;22.00;61.50
33761;DHT22;20084;47.912;19.044;2024-02-16T15:19:41;21.80;62.50